Time;durP1;ratioP1;P1;durP2;ratioP2;P2;SDS_P1;SDS_P2;PMS_P1;PMS_P2;Temp;Humidity;BMP_temperature;BMP_pressure;BME280_temperature;BME280_humidity;BME280_pressure;Samples;Min_cycle;Max_cycle;Signal;HPM_P1;HPM_P2
2023/03/05 00:01:46;;;;;;;;;;;;;;;;;;5046406;28;4480;-58
2023/03/05 00:04:11;;;;;;;;;;;;;;;;;;5048017;28;4764;-59
2023/03/05 00:06:37;;;;;;;;;;;;;;;;;;5039751;28;4737;-58
2023/03/05 00:09:02;;;;;;;;;;;;;;;;;;5044625;28;3242;-59
2023/03/05 00:11:28;;;;;;;;;;;;;;;;;;5045505;28;4587;-59
2023/03/05 00:13:54;;;;;;;;;;;;;;;;;;5045381;28;5121;-58
2023/03/05 00:16:20;;;;;;;;;;;;;;;;;;5040738;28;4896;-60
2023/03/05 00:18:45;;;;;;;;;;;;;;;;;;5047001;28;4467;-59
2023/03/05 00:21:19;;;;;;;;;;;;;;;;;;5042687;28;4679;-60
2023/03/05 00:23:44;;;;;;;;;;;;;;;;;;5045744;28;4637;-61
2023/03/05 00:26:09;;;;;;;;;;;;;;;;;;5045114;28;4571;-60
2023/03/05 00:28:35;;;;;;;;;;;;;;;;;;5059390;28;5122;-59
2023/03/05 00:31:00;;;;;;;;;;;;;;;;;;5045048;28;5125;-58
2023/03/05 00:33:25;;;;;;;;;;;;;;;;;;5073143;28;2177;-58
2023/03/05 00:35:51;;;;;;;;;;;;;;;;;;5030142;28;5092;-59
2023/03/05 00:38:16;;;;;;;;;;;;;;;;;;5054789;28;4478;-59
2023/03/05 00:40:41;;;;;;;;;;;;;;;;;;5047911;28;4651;-58
2023/03/05 00:43:06;;;;;;;;;;;;;;;;;;5042909;28;4765;-59
2023/03/05 00:45:32;;;;;;;;;;;;;;;;;;5040442;28;3171;-58
2023/03/05 00:47:57;;;;;;;;;;;;;;;;;;5039867;28;4454;-59
2023/03/05 00:50:22;;;;;;;;;;;;;;;;;;5031551;28;4731;-59
2023/03/05 00:52:48;;;;;;;;;;;;;;;;;;5042778;28;4749;-59
2023/03/05 00:55:13;;;;;;;;;;;;;;;;;;5038758;28;4986;-58
2023/03/05 00:57:38;;;;;;;;;;;;;;;;;;5042924;28;4548;-58
2023/03/05 01:00:04;;;;;;;;;;;;;;;;;;5040240;28;3381;-59
2023/03/05 01:02:29;;;;;;;;;;;;;;;;;;5041461;28;5063;-59
2023/03/05 01:04:55;;;;;;;;;;;;;;;;;;5039889;28;4491;-57
2023/03/05 01:07:20;;;;;;;;;;;;;;;;;;5037708;28;4587;-60
2023/03/05 01:09:45;;;;;;;;;;;;;;;;;;5040821;28;4983;-59
2023/03/05 01:12:10;;;;;;;;;;;;;;;;;;5042954;28;3041;-58
2023/03/05 01:14:36;;;;;;;;;;;;;;;;;;5042206;28;4966;-59
2023/03/05 01:17:01;;;;;;;;;;;;;;;;;;5032324;28;4658;-56
2023/03/05 01:19:26;;;;;;;;;;;;;;;;;;5043819;28;4892;-60
2023/03/05 01:21:53;;;;;;;;;;;;;;;;;;5041398;28;4703;-58
2023/03/05 01:24:19;;;;;;;;;;;;;;;;;;5044145;28;3223;-59
2023/03/05 01:26:44;;;;;;;;;;;;;;;;;;5040790;28;5045;-59
2023/03/05 01:29:09;;;;;;;;;;;;;;;;;;5042796;28;4647;-58
2023/03/05 01:31:34;;;;;;;;;;;;;;;;;;5039132;28;4509;-59
2023/03/05 01:34:00;;;;;;;;;;;;;;;;;;5046822;28;4575;-59
2023/03/05 01:36:25;;;;;;;;;;;;;;;;;;5044753;28;3229;-57
2023/03/05 01:38:50;;;;;;;;;;;;;;;;;;5048475;28;4973;-59
2023/03/05 01:41:16;;;;;;;;;;;;;;;;;;5045913;28;5113;-57
2023/03/05 01:43:42;;;;;;;;;;;;;;;;;;5042484;28;4657;-59
2023/03/05 01:46:15;;;;;;;;;;;;;;;;;;5045427;28;4521;-60
2023/03/05 01:48:41;;;;;;;;;;;;;;;;;;5047217;28;5560;-60
2023/03/05 01:51:06;;;;;;;;;;;;;;;;;;5046653;28;3208;-59
2023/03/05 01:53:31;;;;;;;;;;;;;;;;;;5052075;28;4498;-59
2023/03/05 01:55:57;;;;;;;;;;;;;;;;;;5048507;28;4687;-59
2023/03/05 01:58:22;;;;;;;;;;;;;;;;;;5040274;28;5078;-59
2023/03/05 02:00:47;;;;;;;;;;;;;;;;;;5040753;28;5224;-59
2023/03/05 02:03:12;;;;;;;;;;;;;;;;;;5042935;28;3155;-60
2023/03/05 02:05:38;;;;;;;;;;;;;;;;;;5040724;28;5151;-60
2023/03/05 02:08:04;;;;;;;;;;;;;;;;;;5043886;28;4636;-59
2023/03/05 02:10:33;;;;;;;;;;;;;;;;;;5052646;28;4637;-60
2023/03/05 02:13:00;;;;;;;;;;;;;;;;;;5048380;28;4534;-56
2023/03/05 02:15:25;;;;;;;;;;;;;;;;;;5048887;28;3450;-59
2023/03/05 02:17:50;;;;;;;;;;;;;;;;;;5044883;28;4933;-59
2023/03/05 02:20:20;;;;;;;;;;;;;;;;;;5029735;28;4651;-59
2023/03/05 02:22:45;;;;;;;;;;;;;;;;;;5042409;28;4972;-59
2023/03/05 02:25:11;;;;;;;;;;;;;;;;;;5044521;28;4520;-59
2023/03/05 02:27:37;;;;;;;;;;;;;;;;;;5036306;28;5068;-58
2023/03/05 02:30:02;;;;;;;;;;;;;;;;;;5045607;28;3232;-59
2023/03/05 02:32:27;;;;;;;;;;;;;;;;;;5047857;28;4460;-59
2023/03/05 02:34:52;;;;;;;;;;;;;;;;;;5048503;28;4529;-59
2023/03/05 02:37:18;;;;;;;;;;;;;;;;;;5041608;28;5021;-59
2023/03/05 02:39:43;;;;;;;;;;;;;;;;;;5045261;28;4563;-59
2023/03/05 02:42:08;;;;;;;;;;;;;;;;;;5045649;28;3234;-57
2023/03/05 02:44:33;;;;;;;;;;;;;;;;;;5047071;28;4643;-59
2023/03/05 02:46:59;;;;;;;;;;;;;;;;;;5046941;28;4695;-59
2023/03/05 02:49:25;;;;;;;;;;;;;;;;;;5043037;28;4985;-59
2023/03/05 02:51:50;;;;;;;;;;;;;;;;;;5042317;28;4452;-60
2023/03/05 02:54:15;;;;;;;;;;;;;;;;;;5044510;28;3234;-59
2023/03/05 02:56:42;;;;;;;;;;;;;;;;;;5037577;28;4399;-59
2023/03/05 02:59:07;;;;;;;;;;;;;;;;;;5046178;28;4611;-59
2023/03/05 03:01:32;;;;;;;;;;;;;;;;;;5046568;28;5068;-59
2023/03/05 03:03:58;;;;;;;;;;;;;;;;;;5049611;28;4512;-59
2023/03/05 03:06:23;;;;;;;;;;;;;;;;;;5039919;28;1918;-59
2023/03/05 03:08:48;;;;;;;;;;;;;;;;;;5041290;28;4495;-59
2023/03/05 03:11:14;;;;;;;;;;;;;;;;;;5043864;28;4869;-59
2023/03/05 03:13:39;;;;;;;;;;;;;;;;;;5042404;28;4650;-58
2023/03/05 03:16:05;;;;;;;;;;;;;;;;;;5041433;28;5067;-59
2023/03/05 03:18:30;;;;;;;;;;;;;;;;;;5046083;28;2223;-59
2023/03/05 03:20:56;;;;;;;;;;;;;;;;;;5046541;28;4762;-60
2023/03/05 03:23:21;;;;;;;;;;;;;;;;;;5043073;28;4885;-60
2023/03/05 03:25:46;;;;;;;;;;;;;;;;;;5040046;28;4517;-59
2023/03/05 03:28:11;;;;;;;;;;;;;;;;;;5044102;28;4605;-59
2023/03/05 03:30:37;;;;;;;;;;;;;;;;;;5046792;28;4489;-59
2023/03/05 03:33:02;;;;;;;;;;;;;;;;;;5049980;28;3341;-59
2023/03/05 03:35:27;;;;;;;;;;;;;;;;;;5050445;28;4624;-59
2023/03/05 03:37:52;;;;;;;;;;;;;;;;;;5034943;28;4683;-59
2023/03/05 03:40:18;;;;;;;;;;;;;;;;;;5045052;28;5099;-59
2023/03/05 03:42:43;;;;;;;;;;;;;;;;;;5048214;28;4700;-59
2023/03/05 03:45:08;;;;;;;;;;;;;;;;;;5052092;28;2162;-57
2023/03/05 03:47:34;;;;;;;;;;;;;;;;;;5046310;28;4435;-58
2023/03/05 03:49:59;;;;;;;;;;;;;;;;;;5044574;28;4478;-59
2023/03/05 03:52:25;;;;;;;;;;;;;;;;;;5034670;28;4686;-59
2023/03/05 03:54:51;;;;;;;;;;;;;;;;;;5045556;28;4620;-59
2023/03/05 03:57:17;;;;;;;;;;;;;;;;;;5043762;28;3170;-60
2023/03/05 03:59:44;;;;;;;;;;;;;;;;;;5043009;28;4475;-58
2023/03/05 04:02:10;;;;;;;;;;;;;;;;;;5043760;28;4845;-58
2023/03/05 04:04:35;;;;;;;;;;;;;;;;;;5046792;28;4684;-60
2023/03/05 04:07:00;;;;;;;;;;;;;;;;;;5043374;28;4650;-59
2023/03/05 04:09:25;;;;;;;;;;;;;;;;;;5041585;28;2268;-59
2023/03/05 04:11:51;;;;;;;;;;;;;;;;;;5052894;28;4388;-59
2023/03/05 04:14:16;;;;;;;;;;;;;;;;;;5042092;28;4502;-59
2023/03/05 04:16:41;;;;;;;;;;;;;;;;;;5045342;28;4567;-59
2023/03/05 04:19:06;;;;;;;;;;;;;;;;;;5042210;28;5241;-59
2023/03/05 04:21:32;;;;;;;;;;;;;;;;;;5045141;28;4623;-59
2023/03/05 04:23:57;;;;;;;;;;;;;;;;;;5046854;28;4428;-60
2023/03/05 04:26:22;;;;;;;;;;;;;;;;;;5040279;28;4608;-60
2023/03/05 04:28:48;;;;;;;;;;;;;;;;;;5043216;28;4707;-59
2023/03/05 04:31:13;;;;;;;;;;;;;;;;;;5040907;28;4487;-59
2023/03/05 04:33:38;;;;;;;;;;;;;;;;;;5038911;28;4652;-56
2023/03/05 04:36:04;;;;;;;;;;;;;;;;;;5043327;28;3012;-58
2023/03/05 04:38:29;;;;;;;;;;;;;;;;;;5042476;28;4634;-59
2023/03/05 04:40:54;;;;;;;;;;;;;;;;;;5039173;28;5066;-59
2023/03/05 04:43:19;;;;;;;;;;;;;;;;;;5045292;28;4969;-59
2023/03/05 04:45:45;;;;;;;;;;;;;;;;;;5048630;28;5018;-59
2023/03/05 04:48:10;;;;;;;;;;;;;;;;;;5043197;28;2147;-59
2023/03/05 04:50:35;;;;;;;;;;;;;;;;;;5043854;28;4417;-59
2023/03/05 04:53:01;;;;;;;;;;;;;;;;;;5044984;28;5262;-59
2023/03/05 04:55:26;;;;;;;;;;;;;;;;;;5072811;28;5134;-59
2023/03/05 04:57:51;;;;;;;;;;;;;;;;;;5051823;28;4654;-59
2023/03/05 05:00:17;;;;;;;;;;;;;;;;;;5048769;28;3009;-59
2023/03/05 05:02:46;;;;;;;;;;;;;;;;;;5040069;28;4606;-59
2023/03/05 05:05:12;;;;;;;;;;;;;;;;;;5037525;28;4458;-58
2023/03/05 05:07:37;;;;;;;;;;;;;;;;;;5043595;28;4692;-58
2023/03/05 05:10:02;;;;;;;;;;;;;;;;;;5046492;28;4880;-59
2023/03/05 05:12:29;;;;;;;;;;;;;;;;;;5048006;28;3182;-59
2023/03/05 05:14:54;;;;;;;;;;;;;;;;;;5046207;28;4397;-59
2023/03/05 05:17:19;;;;;;;;;;;;;;;;;;5044683;28;4487;-57
2023/03/05 05:19:44;;;;;;;;;;;;;;;;;;5045259;28;5623;-59
2023/03/05 05:22:10;;;;;;;;;;;;;;;;;;5044225;28;4771;-59
2023/03/05 05:24:35;;;;;;;;;;;;;;;;;;5044626;28;3244;-59
2023/03/05 05:27:00;;;;;;;;;;;;;;;;;;5048359;28;5063;-60
2023/03/05 05:29:25;;;;;;;;;;;;;;;;;;5046968;28;4610;-59
2023/03/05 05:31:52;;;;;;;;;;;;;;;;;;5037787;28;4986;-59
2023/03/05 05:34:18;;;;;;;;;;;;;;;;;;5050063;28;4721;-58
2023/03/05 05:36:43;;;;;;;;;;;;;;;;;;5042200;28;4539;-59
2023/03/05 05:39:08;;;;;;;;;;;;;;;;;;5048020;28;3243;-58
2023/03/05 05:41:33;;;;;;;;;;;;;;;;;;5045418;28;4791;-58
2023/03/05 05:43:59;;;;;;;;;;;;;;;;;;5044167;28;4582;-59
2023/03/05 05:46:24;;;;;;;;;;;;;;;;;;5048597;28;5090;-59
2023/03/05 05:48:49;;;;;;;;;;;;;;;;;;5047234;28;4769;-59
2023/03/05 05:51:18;;;;;;;;;;;;;;;;;;5046511;28;3226;-59
2023/03/05 05:53:44;;;;;;;;;;;;;;;;;;5058816;28;4530;-58
2023/03/05 05:56:09;;;;;;;;;;;;;;;;;;5078821;28;5042;-59
2023/03/05 05:58:35;;;;;;;;;;;;;;;;;;5044659;28;5031;-59
2023/03/05 06:01:00;;;;;;;;;;;;;;;;;;5044691;28;4613;-60
2023/03/05 06:03:26;;;;;;;;;;;;;;;;;;5049258;28;2117;-58
2023/03/05 06:05:51;;;;;;;;;;;;;;;;;;5044552;28;5041;-60
2023/03/05 06:08:16;;;;;;;;;;;;;;;;;;5043018;28;4960;-60
2023/03/05 06:10:41;;;;;;;;;;;;;;;;;;5051976;28;4495;-59
2023/03/05 06:13:07;;;;;;;;;;;;;;;;;;5045328;28;4728;-59
2023/03/05 06:15:32;;;;;;;;;;;;;;;;;;5038566;28;1164;-59
2023/03/05 06:17:58;;;;;;;;;;;;;;;;;;5044298;28;4930;-59
2023/03/05 06:20:23;;;;;;;;;;;;;;;;;;5042134;28;4485;-59
2023/03/05 06:22:48;;;;;;;;;;;;;;;;;;5046162;28;5453;-58
2023/03/05 06:25:14;;;;;;;;;;;;;;;;;;5047005;28;4967;-59
2023/03/05 06:27:39;;;;;;;;;;;;;;;;;;5035402;28;4986;-58
2023/03/05 06:30:04;;;;;;;;;;;;;;;;;;5044360;28;2209;-59
2023/03/05 06:32:30;;;;;;;;;;;;;;;;;;5042637;28;4650;-59
2023/03/05 06:34:55;;;;;;;;;;;;;;;;;;5045583;28;4667;-57
2023/03/05 06:37:20;;;;;;;;;;;;;;;;;;5038921;28;4487;-60
2023/03/05 06:39:45;;;;;;;;;;;;;;;;;;5041086;28;4642;-59
2023/03/05 06:42:11;;;;;;;;;;;;;;;;;;5041298;28;1307;-59
2023/03/05 06:44:39;;;;;;;;;;;;;;;;;;5050415;28;4966;-58
2023/03/05 06:47:05;;;;;;;;;;;;;;;;;;5047178;28;5165;-59
2023/03/05 06:49:30;;;;;;;;;;;;;;;;;;5042888;28;4466;-59
2023/03/05 06:51:56;;;;;;;;;;;;;;;;;;5045838;28;4577;-59
2023/03/05 06:54:21;;;;;;;;;;;;;;;;;;5041694;28;3237;-59
2023/03/05 06:56:46;;;;;;;;;;;;;;;;;;5046191;28;5004;-59
2023/03/05 06:59:12;;;;;;;;;;;;;;;;;;5048534;28;4401;-58
2023/03/05 07:01:37;;;;;;;;;;;;;;;;;;5044950;28;4451;-59
2023/03/05 07:04:03;;;;;;;;;;;;;;;;;;5052095;28;4716;-59
2023/03/05 07:06:30;;;;;;;;;;;;;;;;;;5047234;28;1902;-58
2023/03/05 07:08:55;;;;;;;;;;;;;;;;;;5044491;28;4979;-59
2023/03/05 07:11:21;;;;;;;;;;;;;;;;;;5047034;28;4761;-60
2023/03/05 07:13:46;;;;;;;;;;;;;;;;;;5047696;28;4515;-60
2023/03/05 07:16:17;;;;;;;;;;;;;;;;;;5048009;28;5158;-61
2023/03/05 07:18:43;;;;;;;;;;;;;;;;;;5049897;28;4792;-61
2023/03/05 07:21:08;;;;;;;;;;;;;;;;;;5054288;28;4615;-61
2023/03/05 07:23:34;;;;;;;;;;;;;;;;;;5048676;28;4506;-60
2023/03/05 07:26:00;;;;;;;;;;;;;;;;;;5047280;28;4534;-61
2023/03/05 07:28:25;;;;;;;;;;;;;;;;;;5051413;28;4644;-57
2023/03/05 07:30:55;;;;;;;;;;;;;;;;;;5042342;28;4659;-61
2023/03/05 07:33:20;;;;;;;;;;;;;;;;;;5044888;28;1435;-60
2023/03/05 07:35:45;;;;;;;;;;;;;;;;;;5043016;28;4930;-62
2023/03/05 07:38:11;;;;;;;;;;;;;;;;;;5042347;28;4587;-61
2023/03/05 07:40:36;;;;;;;;;;;;;;;;;;5039464;28;5107;-62
2023/03/05 07:43:01;;;;;;;;;;;;;;;;;;5047139;28;5451;-63
2023/03/05 07:45:26;;;;;;;;;;;;;;;;;;5044611;28;3060;-63
2023/03/05 07:47:52;;;;;;;;;;;;;;;;;;5038374;28;4422;-62
2023/03/05 07:50:17;;;;;;;;;;;;;;;;;;5036844;28;4428;-61
2023/03/05 07:52:42;;;;;;;;;;;;;;;;;;5033508;28;5797;-63
2023/03/05 07:55:08;;;;;;;;;;;;;;;;;;5043679;28;4663;-60
2023/03/05 07:57:36;;;;;;;;;;;;;;;;;;5040126;28;1105;-62
2023/03/05 08:00:03;;;;;;;;;;;;;;;;;;5044139;28;5154;-63
2023/03/05 08:02:28;;;;;;;;;;;;;;;;;;5036050;28;4482;-61
2023/03/05 08:04:54;;;;;;;;;;;;;;;;;;5039830;28;4597;-60
2023/03/05 08:07:19;;;;;;;;;;;;;;;;;;5035359;28;4648;-61
2023/03/05 08:09:44;;;;;;;;;;;;;;;;;;5045484;28;5087;-61
2023/03/05 08:12:09;;;;;;;;;;;;;;;;;;5038622;28;3292;-61
2023/03/05 08:14:35;;;;;;;;;;;;;;;;;;5047398;28;4490;-60
2023/03/05 08:17:00;;;;;;;;;;;;;;;;;;5044106;28;5012;-60
2023/03/05 08:19:25;;;;;;;;;;;;;;;;;;5040186;28;4486;-61
2023/03/05 08:21:51;;;;;;;;;;;;;;;;;;5048955;28;4938;-58
2023/03/05 08:24:16;;;;;;;;;;;;;;;;;;5039775;28;4953;-59
2023/03/05 08:26:41;;;;;;;;;;;;;;;;;;5035584;28;4859;-65
2023/03/05 08:29:07;;;;;;;;;;;;;;;;;;5044463;28;4663;-70
2023/03/05 08:31:32;;;;;;;;;;;;;;;;;;5040076;28;5183;-68
2023/03/05 08:33:58;;;;;;;;;;;;;;;;;;5036751;28;4478;-69
2023/03/05 08:36:23;;;;;;;;;;;;;;;;;;5040217;28;1500;-67
2023/03/05 08:38:49;;;;;;;;;;;;;;;;;;5043033;28;4442;-67
2023/03/05 08:41:15;;;;;;;;;;;;;;;;;;5041663;28;4643;-69
2023/03/05 08:43:40;;;;;;;;;;;;;;;;;;5038951;28;4658;-69
2023/03/05 08:46:05;;;;;;;;;;;;;;;;;;5039260;28;5152;-58
2023/03/05 08:48:30;;;;;;;;;;;;;;;;;;5027854;28;3707;-57
2023/03/05 08:50:56;;;;;;;;;;;;;;;;;;5042939;28;4558;-57
2023/03/05 08:53:21;;;;;;;;;;;;;;;;;;5041478;28;4821;-57
2023/03/05 08:55:54;;;;;;;;;;;;;;;;;;5040488;28;5292;-55
2023/03/05 08:58:20;;;;;;;;;;;;;;;;;;5037169;28;4840;-57
2023/03/05 09:00:45;;;;;;;;;;;;;;;;;;5045433;28;4777;-57
2023/03/05 09:03:10;;;;;;;;;;;;;;;;;;5044069;28;2409;-57
2023/03/05 09:05:35;;;;;;;;;;;;;;;;;;5042965;28;4423;-58
2023/03/05 09:08:01;;;;;;;;;;;;;;;;;;5043880;28;4450;-57
2023/03/05 09:10:26;;;;;;;;;;;;;;;;;;5032920;28;4614;-57
2023/03/05 09:12:51;;;;;;;;;;;;;;;;;;5039014;28;4640;-56
2023/03/05 09:15:16;;;;;;;;;;;;;;;;;;5030044;28;1217;-58
2023/03/05 09:17:42;;;;;;;;;;;;;;;;;;5045585;28;4462;-59
2023/03/05 09:20:09;;;;;;;;;;;;;;;;;;5036424;28;4514;-55
2023/03/05 09:22:34;;;;;;;;;;;;;;;;;;5043389;28;4679;-56
2023/03/05 09:25:00;;;;;;;;;;;;;;;;;;5040308;28;5510;-55
2023/03/05 09:27:25;;;;;;;;;;;;;;;;;;5040839;28;1992;-55
2023/03/05 09:29:51;;;;;;;;;;;;;;;;;;5036414;28;4539;-57
2023/03/05 09:32:17;;;;;;;;;;;;;;;;;;5041231;28;4961;-56
2023/03/05 09:34:42;;;;;;;;;;;;;;;;;;5050643;28;4545;-58
2023/03/05 09:37:07;;;;;;;;;;;;;;;;;;5044759;28;5137;-57
2023/03/05 09:39:33;;;;;;;;;;;;;;;;;;5034320;28;3365;-57
2023/03/05 09:42:04;;;;;;;;;;;;;;;;;;5037304;28;4643;-58
2023/03/05 09:44:48;;;;;;;;;;;;;;;;;;5034341;28;4572;-58
2023/03/05 09:47:19;;;;;;;;;;;;;;;;;;5036235;28;4876;-59
2023/03/05 09:49:44;;;;;;;;;;;;;;;;;;5044054;28;4811;-55
2023/03/05 09:52:14;;;;;;;;;;;;;;;;;;5053781;28;4625;-56
2023/03/05 09:54:40;;;;;;;;;;;;;;;;;;5054490;28;5511;-59
2023/03/05 09:57:09;;;;;;;;;;;;;;;;;;5044779;28;1119;-59
2023/03/05 09:59:35;;;;;;;;;;;;;;;;;;5079217;28;4616;-57
2023/03/05 10:02:35;;;;;;;;;;;;;;;;;;5037314;28;4491;-56
2023/03/05 10:05:11;;;;;;;;;;;;;;;;;;5044543;28;5030;-56
2023/03/05 10:07:37;;;;;;;;;;;;;;;;;;5041704;28;4963;-56
2023/03/05 10:10:04;;;;;;;;;;;;;;;;;;5041106;28;5047;-56
2023/03/05 10:12:41;;;;;;;;;;;;;;;;;;5043019;28;3409;-58
2023/03/05 10:15:12;;;;;;;;;;;;;;;;;;5039080;28;5097;-56
2023/03/05 10:17:43;;;;;;;;;;;;;;;;;;5036164;28;4481;-54
2023/03/05 10:20:27;;;;;;;;;;;;;;;;;;5034109;28;4928;-53
2023/03/05 10:23:11;;;;;;;;;;;;;;;;;;5042368;28;4894;-55
2023/03/05 10:25:40;;;;;;;;;;;;;;;;;;5041368;28;4440;-55
2023/03/05 10:28:09;;;;;;;;;;;;;;;;;;5035574;28;4590;-56
2023/03/05 10:30:44;;;;;;;;;;;;;;;;;;5041991;28;3596;-55
2023/03/05 10:33:12;;;;;;;;;;;;;;;;;;5043063;28;5017;-55
2023/03/05 10:35:45;;;;;;;;;;;;;;;;;;5039339;28;4771;-53
2023/03/05 10:38:16;;;;;;;;;;;;;;;;;;5052694;28;4682;-54
2023/03/05 10:40:45;;;;;;;;;;;;;;;;;;5043822;28;4558;-55
2023/03/05 10:43:26;;;;;;;;;;;;;;;;;;5043482;28;4955;-55
2023/03/05 10:45:52;;;;;;;;;;;;;;;;;;5041708;28;4597;-56
2023/03/05 10:48:20;;;;;;;;;;;;;;;;;;5038676;28;3312;-53
2023/03/05 10:50:47;;;;;;;;;;;;;;;;;;5042580;28;4580;-58
2023/03/05 10:53:44;;;;;;;;;;;;;;;;;;5041995;28;4719;-57
2023/03/05 10:56:10;;;;;;;;;;;;;;;;;;5026141;28;4648;-57
2023/03/05 10:58:35;;;;;;;;;;;;;;;;;;5070676;28;5008;-56
2023/03/05 11:01:03;;;;;;;;;;;;;;;;;;5038082;28;4485;-56
2023/03/05 11:03:48;;;;;;;;;;;;;;;;;;5042024;28;3328;-55
2023/03/05 11:06:13;;;;;;;;;;;;;;;;;;5021317;28;5021;-56
2023/03/05 11:08:38;;;;;;;;;;;;;;;;;;5043096;28;4964;-52
2023/03/05 11:11:06;;;;;;;;;;;;;;;;;;5046362;28;4439;-51
2023/03/05 11:13:32;;;;;;;;;;;;;;;;;;5042352;28;4490;-55
2023/03/05 11:16:10;;;;;;;;;;;;;;;;;;5052849;28;4907;-55
2023/03/05 11:18:36;;;;;;;;;;;;;;;;;;5048218;28;3242;-58
2023/03/05 11:21:08;;;;;;;;;;;;;;;;;;5040054;28;5853;-56
2023/03/05 11:23:34;;;;;;;;;;;;;;;;;;5042459;28;4455;-50
2023/03/05 11:26:00;;;;;;;;;;;;;;;;;;5047083;28;5030;-52
2023/03/05 11:28:26;;;;;;;;;;;;;;;;;;5045479;28;5152;-55
2023/03/05 11:30:59;;;;;;;;;;;;;;;;;;5022779;28;5386;-55
2023/03/05 11:33:25;;;;;;;;;;;;;;;;;;5028602;28;3320;-55
2023/03/05 11:35:50;;;;;;;;;;;;;;;;;;5041867;28;4526;-54
2023/03/05 11:38:19;;;;;;;;;;;;;;;;;;5043861;28;4485;-55
2023/03/05 11:40:45;;;;;;;;;;;;;;;;;;5044984;28;4504;-54
2023/03/05 11:43:17;;;;;;;;;;;;;;;;;;5038811;28;4678;-55
2023/03/05 11:45:43;;;;;;;;;;;;;;;;;;5042599;28;4690;-54
2023/03/05 11:48:11;;;;;;;;;;;;;;;;;;5048239;28;3169;-54
2023/03/05 11:50:37;;;;;;;;;;;;;;;;;;5035381;28;4703;-55
2023/03/05 11:53:03;;;;;;;;;;;;;;;;;;5048983;28;4625;-48
2023/03/05 11:55:44;;;;;;;;;;;;;;;;;;5041748;28;4510;-54
2023/03/05 11:58:14;;;;;;;;;;;;;;;;;;5038813;28;4519;-56
2023/03/05 12:00:40;;;;;;;;;;;;;;;;;;5041964;28;5213;-56
2023/03/05 12:03:13;;;;;;;;;;;;;;;;;;5041613;28;3477;-55
2023/03/05 12:05:42;;;;;;;;;;;;;;;;;;5034374;28;4442;-56
2023/03/05 12:08:12;;;;;;;;;;;;;;;;;;5037243;28;4885;-56
2023/03/05 12:10:37;;;;;;;;;;;;;;;;;;5028517;28;4942;-56
2023/03/05 12:13:05;;;;;;;;;;;;;;;;;;5034535;28;4635;-55
2023/03/05 12:15:35;;;;;;;;;;;;;;;;;;5042086;28;3471;-56
2023/03/05 12:18:00;;;;;;;;;;;;;;;;;;5035406;28;4379;-58
2023/03/05 12:20:45;;;;;;;;;;;;;;;;;;5054453;28;4613;-56
2023/03/05 12:23:14;;;;;;;;;;;;;;;;;;5047394;28;4552;-54
2023/03/05 12:25:46;;;;;;;;;;;;;;;;;;5040954;28;4437;-54
2023/03/05 12:28:15;;;;;;;;;;;;;;;;;;5053472;28;4479;-57
2023/03/05 12:30:40;;;;;;;;;;;;;;;;;;5044964;28;4600;-56
2023/03/05 12:33:19;;;;;;;;;;;;;;;;;;5043243;28;3435;-57
2023/03/05 12:35:44;;;;;;;;;;;;;;;;;;5033766;28;5054;-58
2023/03/05 12:38:16;;;;;;;;;;;;;;;;;;5041149;28;4541;-54
2023/03/05 12:40:41;;;;;;;;;;;;;;;;;;5044272;28;4690;-57
2023/03/05 12:43:25;;;;;;;;;;;;;;;;;;5047087;28;4591;-58
2023/03/05 12:45:51;;;;;;;;;;;;;;;;;;5034720;28;4548;-56
2023/03/05 12:48:17;;;;;;;;;;;;;;;;;;5031271;28;3348;-55
2023/03/05 12:50:43;;;;;;;;;;;;;;;;;;5047795;28;5058;-58
2023/03/05 12:53:09;;;;;;;;;;;;;;;;;;5039918;28;4752;-48
2023/03/05 12:55:36;;;;;;;;;;;;;;;;;;5046946;28;5961;-52
2023/03/05 12:58:01;;;;;;;;;;;;;;;;;;5044327;28;4523;-53
2023/03/05 13:00:32;;;;;;;;;;;;;;;;;;5041894;28;3323;-54
2023/03/05 13:02:57;;;;;;;;;;;;;;;;;;5041851;28;4439;-56
2023/03/05 13:05:23;;;;;;;;;;;;;;;;;;5043934;28;4758;-55
2023/03/05 13:07:48;;;;;;;;;;;;;;;;;;5045061;28;4866;-55
2023/03/05 13:10:21;;;;;;;;;;;;;;;;;;5049107;28;4688;-55
2023/03/05 13:12:52;;;;;;;;;;;;;;;;;;5041078;28;4525;-55
2023/03/05 13:15:18;;;;;;;;;;;;;;;;;;5037726;28;3261;-56
2023/03/05 13:17:56;;;;;;;;;;;;;;;;;;5047556;28;4583;-56
2023/03/05 13:20:24;;;;;;;;;;;;;;;;;;5037342;28;4435;-58
2023/03/05 13:23:08;;;;;;;;;;;;;;;;;;5047271;28;4975;-56
2023/03/05 13:25:33;;;;;;;;;;;;;;;;;;5034806;28;5148;-56
2023/03/05 13:28:03;;;;;;;;;;;;;;;;;;5038509;28;4427;-56
2023/03/05 13:30:28;;;;;;;;;;;;;;;;;;5046663;28;3098;-55
2023/03/05 13:32:54;;;;;;;;;;;;;;;;;;5043650;28;5007;-55
2023/03/05 13:35:19;;;;;;;;;;;;;;;;;;5043009;28;5529;-56
2023/03/05 13:37:45;;;;;;;;;;;;;;;;;;5043165;28;4593;-54
2023/03/05 13:40:20;;;;;;;;;;;;;;;;;;5034189;28;3044;-54
2023/03/05 13:42:46;;;;;;;;;;;;;;;;;;5045729;28;1759;-56
2023/03/05 13:45:27;;;;;;;;;;;;;;;;;;5059516;28;1279;-56
2023/03/05 13:48:03;;;;;;;;;;;;;;;;;;5048173;28;1112;-56
2023/03/05 13:50:29;;;;;;;;;;;;;;;;;;5050630;28;1175;-56
2023/03/05 13:52:55;;;;;;;;;;;;;;;;;;5050465;28;1175;-55
2023/03/05 13:55:20;;;;;;;;;;;;;;;;;;5082052;28;1104;-55
2023/03/05 13:57:48;;;;;;;;;;;;;;;;;;5082215;28;1155;-54
2023/03/05 14:00:33;;;;;;;;;;;;;;;;;;5049995;28;989;-55
2023/03/05 14:03:07;;;;;;;;;;;;;;;;;;5050713;28;1159;-54
2023/03/05 14:05:32;;;;;;;;;;;;;;;;;;5048642;28;1967;-52
2023/03/05 14:07:58;;;;;;;;;;;;;;;;;;5036909;28;1166;-54
2023/03/05 14:10:36;;;;;;;;;;;;;;;;;;5050056;28;1112;-54
2023/03/05 14:13:11;;;;;;;;;;;;;;;;;;5082888;28;1217;-54
2023/03/05 14:15:36;;;;;;;;;;;;;;;;;;5050104;28;1061;-55
2023/03/05 14:18:08;;;;;;;;;;;;;;;;;;5082442;28;1170;-56
2023/03/05 14:20:33;;;;;;;;;;;;;;;;;;5050300;28;1096;-55
2023/03/05 14:22:59;;;;;;;;;;;;;;;;;;5050299;28;1143;-54
2023/03/05 14:25:35;;;;;;;;;;;;;;;;;;5050022;28;1914;-55
2023/03/05 14:28:15;;;;;;;;;;;;;;;;;;5050433;28;1001;-55
2023/03/05 14:30:44;;;;;;;;;;;;;;;;;;5050126;28;1084;-55
2023/03/05 14:33:09;;;;;;;;;;;;;;;;;;5082575;28;1189;-53
2023/03/05 14:35:34;;;;;;;;;;;;;;;;;;5048946;28;1551;-56
2023/03/05 14:38:00;;;;;;;;;;;;;;;;;;5035775;28;1143;-56
2023/03/05 14:40:27;;;;;;;;;;;;;;;;;;5049892;28;1212;-56
2023/03/05 14:43:02;;;;;;;;;;;;;;;;;;5049315;28;1209;-54
2023/03/05 14:45:29;;;;;;;;;;;;;;;;;;5049817;28;1887;-54
2023/03/05 14:47:54;;;;;;;;;;;;;;;;;;5081712;28;1171;-54
2023/03/05 14:50:21;;;;;;;;;;;;;;;;;;5049827;28;1067;-56
2023/03/05 14:52:47;;;;;;;;;;;;;;;;;;5050189;28;1170;-54
2023/03/05 14:55:13;;;;;;;;;;;;;;;;;;5050064;28;1104;-56
2023/03/05 14:57:38;;;;;;;;;;;;;;;;;;5049858;28;1195;-56
2023/03/05 15:00:03;;;;;;;;;;;;;;;;;;5049986;28;1274;-55
2023/03/05 15:02:29;;;;;;;;;;;;;;;;;;5049812;28;1106;-55
2023/03/05 15:04:54;;;;;;;;;;;;;;;;;;5049505;28;1162;-55
2023/03/05 15:07:21;;;;;;;;;;;;;;;;;;5035630;28;1918;-55
2023/03/05 15:09:46;;;;;;;;;;;;;;;;;;5049295;28;1088;-54
2023/03/05 15:12:12;;;;;;;;;;;;;;;;;;5082227;28;1064;-55
2023/03/05 15:14:39;;;;;;;;;;;;;;;;;;5049346;28;1131;-55
2023/03/05 15:17:04;;;;;;;;;;;;;;;;;;5049521;28;1155;-56
2023/03/05 15:19:29;;;;;;;;;;;;;;;;;;5049586;28;1159;-56
2023/03/05 15:21:55;;;;;;;;;;;;;;;;;;5049602;28;1143;-57
2023/03/05 15:24:20;;;;;;;;;;;;;;;;;;5049143;28;1139;-55
2023/03/05 15:26:45;;;;;;;;;;;;;;;;;;5049101;28;1973;-55
2023/03/05 15:29:10;;;;;;;;;;;;;;;;;;5049046;28;1341;-55
2023/03/05 15:31:39;;;;;;;;;;;;;;;;;;5049117;28;1092;-54
2023/03/05 15:34:04;;;;;;;;;;;;;;;;;;5047598;28;1229;-54
2023/03/05 15:36:30;;;;;;;;;;;;;;;;;;5041733;28;1639;-55
2023/03/05 15:38:55;;;;;;;;;;;;;;;;;;5042702;28;1109;-55
2023/03/05 15:41:21;;;;;;;;;;;;;;;;;;5048892;28;1238;-56
2023/03/05 15:43:46;;;;;;;;;;;;;;;;;;5036924;28;4660;-56
2023/03/05 15:46:11;;;;;;;;;;;;;;;;;;5039004;28;4760;-55
2023/03/05 15:48:38;;;;;;;;;;;;;;;;;;5048040;28;1283;-55
2023/03/05 15:51:06;;;;;;;;;;;;;;;;;;5046054;28;4968;-56
2023/03/05 15:53:31;;;;;;;;;;;;;;;;;;5036003;28;4751;-55
2023/03/05 15:55:56;;;;;;;;;;;;;;;;;;5048239;28;4550;-56
2023/03/05 15:58:22;;;;;;;;;;;;;;;;;;5044312;28;5217;-55
2023/03/05 16:00:47;;;;;;;;;;;;;;;;;;5039053;28;3894;-59
2023/03/05 16:03:13;;;;;;;;;;;;;;;;;;5038960;28;4916;-53
2023/03/05 16:05:38;;;;;;;;;;;;;;;;;;5045025;28;4636;-55
2023/03/05 16:08:03;;;;;;;;;;;;;;;;;;5037275;28;5118;-54
2023/03/05 16:10:29;;;;;;;;;;;;;;;;;;5041961;28;4522;-55
2023/03/05 16:12:56;;;;;;;;;;;;;;;;;;5047574;28;3547;-58
2023/03/05 16:15:21;;;;;;;;;;;;;;;;;;5033832;28;4557;-57
2023/03/05 16:17:47;;;;;;;;;;;;;;;;;;5044801;28;4539;-57
2023/03/05 16:20:12;;;;;;;;;;;;;;;;;;5044365;28;5041;-57
2023/03/05 16:22:38;;;;;;;;;;;;;;;;;;5043418;28;4842;-57
2023/03/05 16:25:03;;;;;;;;;;;;;;;;;;5032639;28;4736;-55
2023/03/05 16:27:28;;;;;;;;;;;;;;;;;;5042084;28;1913;-55
2023/03/05 16:29:54;;;;;;;;;;;;;;;;;;5039190;28;4631;-53
2023/03/05 16:32:19;;;;;;;;;;;;;;;;;;5046310;28;4897;-56
2023/03/05 16:34:44;;;;;;;;;;;;;;;;;;5042267;28;4970;-53
2023/03/05 16:37:10;;;;;;;;;;;;;;;;;;5043712;28;4711;-56
2023/03/05 16:39:35;;;;;;;;;;;;;;;;;;5040867;28;1223;-58
2023/03/05 16:42:00;;;;;;;;;;;;;;;;;;5030883;28;4630;-55
2023/03/05 16:44:26;;;;;;;;;;;;;;;;;;5034145;28;4652;-57
2023/03/05 16:46:55;;;;;;;;;;;;;;;;;;5040136;28;4997;-55
2023/03/05 16:49:20;;;;;;;;;;;;;;;;;;5042350;28;4792;-57
2023/03/05 16:51:45;;;;;;;;;;;;;;;;;;5040386;28;3259;-53
2023/03/05 16:54:11;;;;;;;;;;;;;;;;;;5044212;28;4648;-54
2023/03/05 16:56:36;;;;;;;;;;;;;;;;;;5026785;28;6329;-56
2023/03/05 16:59:01;;;;;;;;;;;;;;;;;;5029948;28;5491;-57
2023/03/05 17:01:29;;;;;;;;;;;;;;;;;;5030617;28;5243;-51